createdAt,value
2023-05-05T00:01:35.691Z,13.80
2023-05-05T00:04:02.815Z,13.80
2023-05-05T00:06:29.894Z,13.80
2023-05-05T00:08:56.938Z,13.80
2023-05-05T00:11:24.011Z,13.70
2023-05-05T00:13:51.639Z,13.60
2023-05-05T00:16:18.781Z,13.50
2023-05-05T00:18:45.866Z,13.60
2023-05-05T00:21:13.653Z,13.50
2023-05-05T00:23:40.662Z,13.50
2023-05-05T00:26:07.717Z,13.40
2023-05-05T00:28:37.701Z,13.40
2023-05-05T00:31:07.786Z,13.50
2023-05-05T00:33:37.821Z,13.60
2023-05-05T00:36:05.363Z,13.60
2023-05-05T00:38:32.440Z,13.70
2023-05-05T00:40:59.492Z,13.70
2023-05-05T00:43:26.540Z,13.70
2023-05-05T00:46:06.113Z,13.70
2023-05-05T00:48:33.759Z,13.70
2023-05-05T00:51:00.898Z,13.70
2023-05-05T00:53:28.068Z,13.70
2023-05-05T00:55:55.115Z,13.70
2023-05-05T00:58:22.324Z,13.80
2023-05-05T01:00:49.429Z,13.80
2023-05-05T01:03:16.759Z,13.70
2023-05-05T01:05:59.016Z,13.70
2023-05-05T01:08:25.927Z,13.70
2023-05-05T01:10:55.419Z,13.70
2023-05-05T01:13:37.852Z,13.70
2023-05-05T01:16:17.174Z,13.70
2023-05-05T01:18:50.177Z,13.60
2023-05-05T01:21:27.637Z,13.60
2023-05-05T01:24:11.171Z,13.60
2023-05-05T01:26:38.283Z,13.50
2023-05-05T01:29:23.667Z,13.60
2023-05-05T01:31:54.158Z,13.60
2023-05-05T01:34:29.239Z,13.50
2023-05-05T01:37:07.747Z,13.50
2023-05-05T01:39:37.896Z,13.60
2023-05-05T01:42:10.603Z,13.50
2023-05-05T01:44:37.695Z,13.50
2023-05-05T01:47:05.528Z,13.50
2023-05-05T01:49:32.951Z,13.30
2023-05-05T01:52:00.004Z,13.40
2023-05-05T01:54:27.298Z,13.40
2023-05-05T01:56:54.741Z,13.40
2023-05-05T01:59:21.944Z,13.40
2023-05-05T02:01:48.975Z,13.40
2023-05-05T02:04:16.223Z,13.40
2023-05-05T02:06:44.092Z,13.40
2023-05-05T02:09:12.412Z,13.40
2023-05-05T02:11:39.423Z,13.30
2023-05-05T02:14:07.041Z,13.40
2023-05-05T02:16:34.172Z,13.40
2023-05-05T02:19:05.357Z,13.30
2023-05-05T02:21:32.877Z,13.40
2023-05-05T02:23:59.977Z,13.30
2023-05-05T02:26:26.969Z,13.30
2023-05-05T02:29:18.048Z,13.20
2023-05-05T02:31:50.620Z,13.20
2023-05-05T02:34:24.674Z,13.10
2023-05-05T02:36:58.251Z,13.00
2023-05-05T02:39:36.104Z,12.90
2023-05-05T02:42:07.152Z,13.00
2023-05-05T02:44:35.577Z,12.90
2023-05-05T02:47:04.168Z,13.00
2023-05-05T02:49:31.158Z,13.00
2023-05-05T02:51:58.241Z,12.90
2023-05-05T02:54:27.168Z,13.00
2023-05-05T02:56:54.510Z,13.10
2023-05-05T02:59:59.961Z,13.00
2023-05-05T03:02:32.479Z,12.90
2023-05-05T03:05:25.812Z,13.00
2023-05-05T03:08:03.832Z,12.90
2023-05-05T03:10:34.673Z,12.80
2023-05-05T03:13:02.643Z,12.80
2023-05-05T03:15:41.636Z,12.80
2023-05-05T03:18:10.859Z,12.70
2023-05-05T03:20:41.045Z,12.40
2023-05-05T03:23:08.392Z,12.50
2023-05-05T03:25:44.562Z,12.50
2023-05-05T03:28:11.719Z,12.50
2023-05-05T03:30:38.813Z,12.40
2023-05-05T03:33:05.892Z,12.30
2023-05-05T03:35:33.046Z,12.40
2023-05-05T03:38:00.667Z,12.40
2023-05-05T03:40:40.315Z,12.40
2023-05-05T03:43:11.092Z,12.30
2023-05-05T05:02:33.714Z,12.50
2023-05-05T05:05:00.813Z,12.50
2023-05-05T05:07:28.198Z,12.50
2023-05-05T05:09:55.392Z,12.50
2023-05-05T05:12:22.544Z,12.50
2023-05-05T05:14:49.594Z,12.50
2023-05-05T05:17:16.678Z,12.50
2023-05-05T05:19:43.771Z,12.50
2023-05-05T05:22:10.842Z,12.50
2023-05-05T05:24:37.923Z,12.60
2023-05-05T05:27:10.031Z,12.70
2023-05-05T05:29:37.459Z,12.70
2023-05-05T05:32:04.828Z,12.80
2023-05-05T05:34:31.935Z,12.80
2023-05-05T05:36:59.047Z,12.90
2023-05-05T05:39:26.355Z,13.00
2023-05-05T05:41:53.622Z,13.00
2023-05-05T05:44:20.754Z,13.00
2023-05-05T05:46:47.821Z,13.00
2023-05-05T05:49:16.460Z,13.00
2023-05-05T05:51:43.592Z,13.10
2023-05-05T05:54:10.664Z,13.20
2023-05-05T05:56:37.796Z,13.20
2023-05-05T05:59:08.162Z,13.40
2023-05-05T06:01:35.721Z,13.40
2023-05-05T06:04:02.938Z,13.50
2023-05-05T06:06:30.075Z,13.60
2023-05-05T06:08:57.468Z,13.60
2023-05-05T06:11:24.632Z,13.70
2023-05-05T06:13:51.764Z,13.80
2023-05-05T06:16:18.855Z,13.90
2023-05-05T06:18:46.167Z,14.10
2023-05-05T06:21:13.679Z,14.10
2023-05-05T06:23:40.851Z,14.30
2023-05-05T06:26:07.907Z,14.40
2023-05-05T06:28:35.050Z,14.60
2023-05-05T06:31:02.180Z,14.80
2023-05-05T06:33:29.271Z,15.10
2023-05-05T06:35:56.628Z,15.50
2023-05-05T06:38:23.711Z,15.80
2023-05-05T06:40:50.891Z,16.10
2023-05-05T06:43:18.360Z,16.20
2023-05-05T06:45:46.245Z,16.40
2023-05-05T06:48:13.384Z,16.50
2023-05-05T06:50:40.454Z,16.60
2023-05-05T06:53:07.466Z,17.50
2023-05-05T06:55:34.460Z,17.90
2023-05-05T06:58:01.470Z,17.90
2023-05-05T07:00:28.601Z,17.70
2023-05-05T07:02:55.709Z,17.80
2023-05-05T07:05:22.835Z,18.30
2023-05-05T07:07:53.856Z,17.90
2023-05-05T07:10:22.084Z,17.90
2023-05-05T07:12:49.460Z,18.60
2023-05-05T07:15:27.469Z,18.70
2023-05-05T07:17:59.776Z,18.70
2023-05-05T07:20:27.228Z,19.10
2023-05-05T07:22:54.285Z,18.30
2023-05-05T07:25:21.500Z,18.90
2023-05-05T07:27:48.530Z,18.90
2023-05-05T07:30:18.505Z,18.20
2023-05-05T07:32:46.411Z,18.10
2023-05-05T07:35:13.698Z,17.90
2023-05-05T07:37:40.904Z,18.10
2023-05-05T07:40:09.035Z,18.20
2023-05-05T07:42:36.406Z,18.10
2023-05-05T07:45:04.410Z,18.00
2023-05-05T07:47:31.695Z,18.10
2023-05-05T07:49:58.812Z,18.30
2023-05-05T07:52:43.606Z,18.10
2023-05-05T07:55:13.564Z,17.90
2023-05-05T07:57:40.698Z,17.90
2023-05-05T08:00:09.567Z,18.00
2023-05-05T08:02:37.142Z,17.60
2023-05-05T08:05:04.786Z,17.80
2023-05-05T08:07:31.900Z,18.00
2023-05-05T08:09:59.008Z,18.00
2023-05-05T08:12:26.286Z,17.80
2023-05-05T08:14:53.516Z,17.80
2023-05-05T08:17:20.655Z,18.10
2023-05-05T08:19:48.098Z,18.10
2023-05-05T08:22:15.221Z,18.00
2023-05-05T08:24:42.439Z,17.90
2023-05-05T08:27:09.522Z,18.20
2023-05-05T08:29:36.593Z,18.30
2023-05-05T09:03:04.763Z,18.60
2023-05-05T09:05:32.032Z,18.60
2023-05-05T09:07:59.539Z,19.00
2023-05-05T09:10:27.673Z,19.10
2023-05-05T09:12:54.853Z,18.90
2023-05-05T09:15:22.055Z,18.90
2023-05-05T09:17:49.157Z,19.30
2023-05-05T09:20:16.403Z,19.40
2023-05-05T09:22:45.750Z,19.00
2023-05-05T09:25:15.803Z,18.80
2023-05-05T09:27:48.489Z,18.70
2023-05-05T09:30:27.231Z,18.50
2023-05-05T09:32:55.806Z,18.50
2023-05-05T09:35:23.643Z,18.50
2023-05-05T09:37:50.922Z,18.60
2023-05-05T09:40:20.023Z,18.30
2023-05-05T09:42:47.789Z,18.50
2023-05-05T09:45:17.857Z,18.70
2023-05-05T09:47:46.571Z,18.50
2023-05-05T09:50:16.328Z,18.50
2023-05-05T09:52:44.752Z,18.50
2023-05-05T09:55:18.452Z,18.70
2023-05-05T09:57:47.627Z,18.80
2023-05-05T10:00:15.411Z,18.70
2023-05-05T10:02:42.637Z,18.80
2023-05-05T10:05:18.055Z,18.60
2023-05-05T10:07:47.420Z,18.50
2023-05-05T10:10:17.331Z,18.60
2023-05-05T10:12:47.153Z,18.70
2023-05-05T10:15:16.120Z,18.70
2023-05-05T10:20:19.470Z,18.80
2023-05-05T10:22:55.382Z,18.90
2023-05-05T10:25:31.688Z,18.90
2023-05-05T10:28:01.652Z,18.90
2023-05-05T10:30:32.577Z,18.80
2023-05-05T10:35:55.700Z,18.30
2023-05-05T10:38:24.808Z,18.30
2023-05-05T10:40:55.056Z,18.40
2023-05-05T10:43:22.208Z,18.30
2023-05-05T10:45:49.602Z,18.30
2023-05-05T10:48:34.213Z,18.00
2023-05-05T10:51:27.448Z,18.00
2023-05-05T10:54:24.961Z,17.90
2023-05-05T10:56:52.351Z,17.80
2023-05-05T10:59:38.275Z,17.50
2023-05-05T11:02:25.516Z,17.40
2023-05-05T11:05:22.870Z,17.20
2023-05-05T11:07:51.809Z,17.10
2023-05-05T11:10:20.981Z,16.90
2023-05-05T11:13:03.294Z,16.90
2023-05-05T11:15:30.555Z,16.40
2023-05-05T11:17:59.304Z,16.10
2023-05-05T11:20:42.226Z,15.80
2023-05-05T11:23:09.266Z,15.40
2023-05-05T11:25:42.244Z,15.30
2023-05-05T11:28:14.007Z,15.40
2023-05-05T11:30:57.484Z,15.20
2023-05-05T11:33:28.675Z,15.30
2023-05-05T11:36:09.569Z,15.30
2023-05-05T11:38:39.559Z,15.20
2023-05-05T11:41:21.355Z,15.10
2023-05-05T11:43:48.439Z,15.10
2023-05-05T11:46:17.098Z,15.00
2023-05-05T11:48:48.576Z,15.00
2023-05-05T11:51:17.478Z,15.20
2023-05-05T11:53:46.807Z,15.20
2023-05-05T11:56:19.418Z,15.20
2023-05-05T11:59:08.055Z,15.20
2023-05-05T12:01:35.877Z,15.30
2023-05-05T12:04:03.610Z,15.40
2023-05-05T12:06:33.939Z,15.30
2023-05-05T12:09:01.479Z,15.20
2023-05-05T12:11:28.649Z,15.00
2023-05-05T12:14:11.787Z,15.10
2023-05-05T12:16:40.008Z,15.10
2023-05-05T12:19:08.789Z,15.20
2023-05-05T12:21:36.388Z,15.20
2023-05-05T12:24:03.525Z,15.30
2023-05-05T12:26:32.043Z,15.30
2023-05-05T12:29:00.596Z,15.40
2023-05-05T12:31:42.133Z,15.40
2023-05-05T12:34:10.602Z,15.30
2023-05-05T12:36:38.316Z,15.40
2023-05-05T12:39:05.650Z,15.30
2023-05-05T12:41:33.478Z,15.30
2023-05-05T12:44:03.183Z,15.20
2023-05-05T12:46:31.332Z,15.00
2023-05-05T12:49:05.061Z,15.00
2023-05-05T12:51:33.523Z,15.10
2023-05-05T12:54:11.228Z,15.10
2023-05-05T12:56:44.323Z,14.90
2023-05-05T12:59:29.269Z,14.90
2023-05-05T13:01:58.753Z,14.90
2023-05-05T13:04:29.818Z,14.80
2023-05-05T13:07:13.722Z,14.60
2023-05-05T13:09:40.896Z,14.80
2023-05-05T13:12:11.232Z,14.80
2023-05-05T13:14:39.144Z,14.70
2023-05-05T13:17:06.270Z,14.70
2023-05-05T13:19:35.669Z,14.70
2023-05-05T13:22:02.800Z,14.50
2023-05-05T13:24:46.459Z,14.70
2023-05-05T13:27:17.218Z,14.80
2023-05-05T13:29:44.421Z,14.70
2023-05-05T13:32:11.643Z,14.70
2023-05-05T13:34:39.544Z,14.60
2023-05-05T13:37:06.835Z,14.60
2023-05-05T13:39:33.979Z,14.60
2023-05-05T13:42:01.059Z,14.50
2023-05-05T13:44:28.580Z,14.60
2023-05-05T13:46:55.716Z,14.70
2023-05-05T13:49:22.857Z,14.50
2023-05-05T13:51:49.967Z,14.70
2023-05-05T13:54:17.067Z,14.80
2023-05-05T13:56:44.252Z,14.40
2023-05-05T13:59:11.327Z,14.60
2023-05-05T14:01:38.547Z,14.70
2023-05-05T14:04:06.317Z,14.80
2023-05-05T14:06:33.999Z,14.60
2023-05-05T14:09:01.533Z,14.40
2023-05-05T14:11:28.681Z,14.60
2023-05-05T14:13:55.824Z,14.70
2023-05-05T14:16:22.976Z,14.60
2023-05-05T14:18:50.096Z,14.50
2023-05-05T14:21:17.216Z,14.60
2023-05-05T14:23:44.365Z,14.50
2023-05-05T14:26:11.569Z,14.50
2023-05-05T14:28:38.700Z,14.60
2023-05-05T14:31:06.164Z,14.60
2023-05-05T14:33:33.262Z,14.40
2023-05-05T14:36:00.389Z,14.60
2023-05-05T14:38:27.837Z,14.70
2023-05-05T14:40:55.013Z,14.70
2023-05-05T14:43:22.277Z,14.70
2023-05-05T14:45:49.470Z,14.50
2023-05-05T14:48:16.840Z,14.40
2023-05-05T14:50:46.439Z,14.30
2023-05-05T14:53:13.731Z,14.20
2023-05-05T14:55:40.926Z,14.10
2023-05-05T14:58:07.992Z,14.10
2023-05-05T15:00:35.045Z,14.10
2023-05-05T15:03:02.420Z,14.20
2023-05-05T15:05:29.598Z,14.30
2023-05-05T15:07:56.841Z,14.50
2023-05-05T15:10:24.059Z,14.50
2023-05-05T15:12:51.453Z,14.60
2023-05-05T15:15:18.734Z,14.40
2023-05-05T15:17:45.950Z,14.20
2023-05-05T15:20:13.145Z,14.10
2023-05-05T15:22:40.322Z,14.00
2023-05-05T15:25:12.360Z,14.30
2023-05-05T15:27:40.182Z,14.40
2023-05-05T15:30:08.188Z,14.30
2023-05-05T15:32:35.339Z,14.40
2023-05-05T15:35:02.585Z,14.40
2023-05-05T15:37:29.734Z,14.50
2023-05-05T15:39:57.134Z,14.40
2023-05-05T15:42:24.383Z,14.30
2023-05-05T15:44:51.945Z,14.40
2023-05-05T15:47:19.052Z,14.60
2023-05-05T15:49:46.472Z,14.70
2023-05-05T15:52:14.161Z,14.60
2023-05-05T15:54:41.628Z,14.70
2023-05-05T15:57:08.786Z,14.60
2023-05-05T15:59:36.144Z,14.60
2023-05-05T16:02:03.353Z,14.70
2023-05-05T16:04:30.786Z,14.70
2023-05-05T16:06:58.377Z,14.80
2023-05-05T16:09:25.581Z,14.70
2023-05-05T16:11:54.600Z,14.70
2023-05-05T16:14:21.834Z,14.80
2023-05-05T16:16:49.306Z,14.80
2023-05-05T16:19:16.803Z,14.80
2023-05-05T16:21:44.129Z,14.50
2023-05-05T16:24:16.110Z,14.70
2023-05-05T16:26:46.543Z,14.80
2023-05-05T16:29:13.673Z,15.00
2023-05-05T16:31:41.030Z,15.00
2023-05-05T16:34:08.247Z,14.90
2023-05-05T16:36:35.413Z,15.00
2023-05-05T16:39:02.742Z,14.70
2023-05-05T16:41:30.081Z,14.70
2023-05-05T16:43:57.437Z,14.70
2023-05-05T16:46:24.569Z,14.80
2023-05-05T16:48:51.720Z,15.00
2023-05-05T16:51:18.832Z,15.00
2023-05-05T16:53:47.578Z,14.90
2023-05-05T16:56:15.979Z,14.60
2023-05-05T16:58:43.136Z,14.60
2023-05-05T17:01:10.260Z,14.70
2023-05-05T17:03:38.325Z,14.70
2023-05-05T17:06:06.089Z,14.80
2023-05-05T17:08:33.180Z,14.80
2023-05-05T17:11:00.255Z,14.60
2023-05-05T17:13:30.378Z,14.60
2023-05-05T17:15:57.999Z,14.70
2023-05-05T17:18:26.076Z,14.60
2023-05-05T17:20:53.313Z,14.80
2023-05-05T17:23:21.521Z,14.70
2023-05-05T17:25:48.593Z,14.70
2023-05-05T17:28:17.380Z,14.70
2023-05-05T17:30:48.439Z,14.80
2023-05-05T17:33:18.493Z,14.70
2023-05-05T17:35:45.719Z,14.70
2023-05-05T17:38:12.932Z,14.70
2023-05-05T17:40:39.992Z,14.70
2023-05-05T17:43:07.646Z,14.60
2023-05-05T17:45:34.864Z,14.60
2023-05-05T17:48:01.972Z,14.60
2023-05-05T17:50:29.066Z,14.60
2023-05-05T17:52:57.004Z,14.50
2023-05-05T17:55:24.098Z,14.60
2023-05-05T17:57:51.227Z,14.70
2023-05-05T18:00:18.914Z,14.80
2023-05-05T18:02:46.199Z,14.80
2023-05-05T18:05:13.995Z,14.70
2023-05-05T18:07:41.112Z,14.70
2023-05-05T18:10:10.698Z,14.70
2023-05-05T18:12:37.877Z,14.60
2023-05-05T18:15:06.022Z,14.60
2023-05-05T18:17:33.127Z,14.60
2023-05-05T18:20:00.252Z,14.60
2023-05-05T18:22:30.388Z,14.70
2023-05-05T18:25:00.331Z,14.70
2023-05-05T18:27:28.869Z,14.70
2023-05-05T18:29:55.958Z,14.70
2023-05-05T18:32:23.994Z,14.50
2023-05-05T18:34:51.096Z,14.50
2023-05-05T18:37:18.208Z,14.50
2023-05-05T18:39:45.404Z,14.50
2023-05-05T18:42:13.174Z,14.40
2023-05-05T18:44:40.408Z,14.40
2023-05-05T18:47:08.081Z,14.40
2023-05-05T18:49:35.451Z,14.40
2023-05-05T18:52:02.556Z,14.40
2023-05-05T18:54:29.637Z,14.40
2023-05-05T18:56:56.810Z,14.40
2023-05-05T18:59:24.903Z,14.30
2023-05-05T19:01:52.080Z,14.30
2023-05-05T19:04:30.190Z,14.20
2023-05-05T19:06:59.156Z,14.10
2023-05-05T19:09:26.544Z,14.00
2023-05-05T19:11:53.659Z,14.00
2023-05-05T19:14:21.104Z,14.00
2023-05-05T19:16:48.263Z,14.00
2023-05-05T19:19:15.464Z,13.90
2023-05-05T19:21:42.616Z,13.90
2023-05-05T19:24:10.162Z,13.90
2023-05-05T19:26:37.334Z,13.90
2023-05-05T19:29:04.453Z,13.80
2023-05-05T19:31:31.991Z,13.70
2023-05-05T19:34:03.608Z,13.70
2023-05-05T19:36:34.629Z,13.70
2023-05-05T19:39:03.205Z,13.70
2023-05-05T19:41:31.245Z,13.70
2023-05-05T19:43:58.532Z,13.60
2023-05-05T19:46:28.738Z,13.60
2023-05-05T19:48:55.982Z,13.50
2023-05-05T19:51:23.178Z,13.50
2023-05-05T19:53:50.898Z,13.50
2023-05-05T19:56:18.049Z,13.50
2023-05-05T19:59:06.448Z,13.50
2023-05-05T20:01:35.904Z,13.50
2023-05-05T20:04:06.156Z,13.50
2023-05-05T20:06:33.757Z,13.50
2023-05-05T20:09:01.113Z,13.40
2023-05-05T20:11:28.868Z,13.40
2023-05-05T20:13:56.828Z,13.40
2023-05-05T20:16:24.255Z,13.30
2023-05-05T20:18:51.714Z,13.30
2023-05-05T20:21:18.913Z,13.30
2023-05-05T20:23:46.763Z,13.20
2023-05-05T20:26:13.980Z,13.00
2023-05-05T20:28:44.849Z,13.00
2023-05-05T20:31:14.617Z,13.00
2023-05-05T20:33:41.786Z,13.10
2023-05-05T20:36:09.077Z,13.10
2023-05-05T20:38:36.245Z,13.00
2023-05-05T20:41:03.722Z,12.90
2023-05-05T20:43:30.777Z,12.90
2023-05-05T20:45:57.969Z,12.80
2023-05-05T20:48:25.043Z,12.80
2023-05-05T20:50:52.347Z,12.80
2023-05-05T20:53:21.029Z,12.80
2023-05-05T20:55:49.921Z,12.70
2023-05-05T20:58:17.000Z,12.80
2023-05-05T21:00:44.315Z,12.80
2023-05-05T21:03:11.817Z,12.80
2023-05-05T21:05:41.092Z,12.80
2023-05-05T21:08:08.839Z,12.90
2023-05-05T21:10:36.852Z,12.90
2023-05-05T21:13:04.389Z,12.90
2023-05-05T21:15:32.108Z,12.90
2023-05-05T21:17:59.301Z,12.80
2023-05-05T21:20:26.973Z,12.80
2023-05-05T21:22:54.093Z,12.80
2023-05-05T21:25:22.074Z,12.70
2023-05-05T21:27:49.507Z,12.70
2023-05-05T21:30:17.499Z,12.70
2023-05-05T21:32:44.947Z,12.60
2023-05-05T21:35:12.184Z,12.60
2023-05-05T21:37:39.668Z,12.50
2023-05-05T21:40:14.041Z,12.50
2023-05-05T21:42:42.632Z,12.50
2023-05-05T21:45:11.296Z,12.60
2023-05-05T21:47:38.494Z,12.50
2023-05-05T21:50:06.384Z,12.50
2023-05-05T21:52:33.769Z,12.50
2023-05-05T21:55:00.954Z,12.50
2023-05-05T21:57:28.450Z,12.50
2023-05-05T21:59:55.771Z,12.40
2023-05-05T22:02:23.506Z,12.50
2023-05-05T22:04:51.648Z,12.50
2023-05-05T22:07:18.657Z,12.50
2023-05-05T22:09:46.127Z,12.50
2023-05-05T22:12:13.319Z,12.40
2023-05-05T22:14:40.357Z,12.40
2023-05-05T22:17:07.465Z,12.50
2023-05-05T22:19:34.515Z,12.50
2023-05-05T22:22:01.495Z,12.40
2023-05-05T22:24:28.573Z,12.40
2023-05-05T22:26:57.712Z,12.40
2023-05-05T22:29:25.668Z,12.30
2023-05-05T22:31:52.982Z,12.30
2023-05-05T22:34:22.073Z,12.20
2023-05-05T22:36:49.522Z,12.10
2023-05-05T22:39:18.692Z,12.10
2023-05-05T22:41:45.881Z,12.20
2023-05-05T22:44:13.049Z,12.10
2023-05-05T22:46:40.256Z,12.10
2023-05-05T22:49:07.539Z,12.00
2023-05-05T22:51:34.803Z,12.00
2023-05-05T22:54:02.029Z,11.90
2023-05-05T22:56:29.112Z,11.90
2023-05-05T22:58:57.055Z,11.80
2023-05-05T23:01:24.358Z,11.80
2023-05-05T23:03:51.477Z,11.70
2023-05-05T23:06:18.566Z,11.60
2023-05-05T23:08:46.338Z,11.70
2023-05-05T23:11:13.406Z,11.80
2023-05-05T23:13:40.860Z,11.80
2023-05-05T23:16:08.239Z,11.80
2023-05-05T23:18:36.640Z,11.80
2023-05-05T23:21:03.778Z,11.80
2023-05-05T23:23:31.374Z,11.80
2023-05-05T23:25:58.601Z,11.90
2023-05-05T23:28:25.778Z,11.90
2023-05-05T23:30:53.065Z,11.90
2023-05-05T23:33:20.307Z,12.00
2023-05-05T23:35:47.609Z,11.90
2023-05-05T23:38:14.710Z,12.00
2023-05-05T23:40:41.844Z,12.00
2023-05-05T23:43:08.973Z,12.00
2023-05-05T23:45:36.077Z,12.00
2023-05-05T23:48:03.336Z,11.90
2023-05-05T23:50:30.514Z,11.90
2023-05-05T23:52:58.030Z,11.90
2023-05-05T23:55:25.461Z,11.90
2023-05-05T23:57:53.300Z,11.90
